sensor_id;sensor_type;location;lat;lon;timestamp;temperature;humidity
37530;DHT22;23374;52.758;6.872;2022-08-19T00:00:24;19.10;94.10
37530;DHT22;23374;52.758;6.872;2022-08-19T00:02:45;19.00;87.30
37530;DHT22;23374;52.758;6.872;2022-08-19T00:05:11;19.00;93.50
37530;DHT22;23374;52.758;6.872;2022-08-19T00:07:32;19.00;89.60
37530;DHT22;23374;52.758;6.872;2022-08-19T00:09:52;18.90;99.90
37530;DHT22;23374;52.758;6.872;2022-08-19T00:12:14;18.90;95.40
37530;DHT22;23374;52.758;6.872;2022-08-19T00:14:34;18.90;77.40
37530;DHT22;23374;52.758;6.872;2022-08-19T00:16:55;18.90;76.10
37530;DHT22;23374;52.758;6.872;2022-08-19T00:19:16;18.90;80.40
37530;DHT22;23374;52.758;6.872;2022-08-19T00:21:37;18.90;48.40
37530;DHT22;23374;52.758;6.872;2022-08-19T00:23:59;18.80;36.20
37530;DHT22;23374;52.758;6.872;2022-08-19T00:26:20;18.80;38.60
37530;DHT22;23374;52.758;6.872;2022-08-19T00:28:40;18.80;34.70
37530;DHT22;23374;52.758;6.872;2022-08-19T00:31:03;18.70;43.90
37530;DHT22;23374;52.758;6.872;2022-08-19T00:33:24;18.70;54.60
37530;DHT22;23374;52.758;6.872;2022-08-19T00:35:45;18.60;99.90
37530;DHT22;23374;52.758;6.872;2022-08-19T00:38:05;18.60;99.90
37530;DHT22;23374;52.758;6.872;2022-08-19T00:40:28;18.50;99.90
37530;DHT22;23374;52.758;6.872;2022-08-19T00:42:51;18.50;99.90
37530;DHT22;23374;52.758;6.872;2022-08-19T00:45:19;18.50;99.90
37530;DHT22;23374;52.758;6.872;2022-08-19T00:47:40;18.50;99.90
37530;DHT22;23374;52.758;6.872;2022-08-19T00:51:02;18.50;99.90
37530;DHT22;23374;52.758;6.872;2022-08-19T00:53:27;18.50;99.90
37530;DHT22;23374;52.758;6.872;2022-08-19T00:55:50;18.50;99.90
37530;DHT22;23374;52.758;6.872;2022-08-19T00:58:16;18.50;99.90
37530;DHT22;23374;52.758;6.872;2022-08-19T01:00:37;18.50;99.90
37530;DHT22;23374;52.758;6.872;2022-08-19T01:02:58;18.50;99.90
37530;DHT22;23374;52.758;6.872;2022-08-19T01:05:25;18.50;99.90
37530;DHT22;23374;52.758;6.872;2022-08-19T01:07:48;18.50;99.90
37530;DHT22;23374;52.758;6.872;2022-08-19T01:10:16;18.40;99.90
37530;DHT22;23374;52.758;6.872;2022-08-19T01:12:39;18.40;99.90
37530;DHT22;23374;52.758;6.872;2022-08-19T01:14:59;18.30;99.90
37530;DHT22;23374;52.758;6.872;2022-08-19T01:17:20;18.30;99.90
37530;DHT22;23374;52.758;6.872;2022-08-19T01:19:42;18.40;99.90
37530;DHT22;23374;52.758;6.872;2022-08-19T01:23:34;18.40;99.90
37530;DHT22;23374;52.758;6.872;2022-08-19T01:26:03;18.50;99.90
37530;DHT22;23374;52.758;6.872;2022-08-19T01:28:27;18.40;99.90
37530;DHT22;23374;52.758;6.872;2022-08-19T01:30:47;18.40;99.90
37530;DHT22;23374;52.758;6.872;2022-08-19T01:33:08;18.40;99.90
37530;DHT22;23374;52.758;6.872;2022-08-19T01:35:30;18.40;99.90
37530;DHT22;23374;52.758;6.872;2022-08-19T01:37:57;18.40;99.90
37530;DHT22;23374;52.758;6.872;2022-08-19T01:40:20;18.40;99.90
37530;DHT22;23374;52.758;6.872;2022-08-19T01:42:41;18.40;99.90
37530;DHT22;23374;52.758;6.872;2022-08-19T01:45:02;18.30;99.90
37530;DHT22;23374;52.758;6.872;2022-08-19T01:47:23;18.30;99.90
37530;DHT22;23374;52.758;6.872;2022-08-19T01:51:09;18.30;99.90
37530;DHT22;23374;52.758;6.872;2022-08-19T01:53:29;18.30;99.90
37530;DHT22;23374;52.758;6.872;2022-08-19T01:55:49;18.20;99.90
37530;DHT22;23374;52.758;6.872;2022-08-19T01:58:18;18.20;99.90
37530;DHT22;23374;52.758;6.872;2022-08-19T02:00:42;18.20;99.90
37530;DHT22;23374;52.758;6.872;2022-08-19T02:03:02;18.10;99.90
37530;DHT22;23374;52.758;6.872;2022-08-19T02:05:23;18.20;99.90
37530;DHT22;23374;52.758;6.872;2022-08-19T02:07:44;18.10;99.90
37530;DHT22;23374;52.758;6.872;2022-08-19T02:10:18;18.10;99.90
37530;DHT22;23374;52.758;6.872;2022-08-19T02:12:39;18.00;99.90
37530;DHT22;23374;52.758;6.872;2022-08-19T02:15:00;18.00;99.90
37530;DHT22;23374;52.758;6.872;2022-08-19T02:17:21;18.00;99.90
37530;DHT22;23374;52.758;6.872;2022-08-19T02:19:42;18.00;99.90
37530;DHT22;23374;52.758;6.872;2022-08-19T02:22:02;18.00;99.90
37530;DHT22;23374;52.758;6.872;2022-08-19T02:24:22;18.00;99.90
37530;DHT22;23374;52.758;6.872;2022-08-19T02:26:42;18.00;99.90
37530;DHT22;23374;52.758;6.872;2022-08-19T02:29:03;18.00;99.90
37530;DHT22;23374;52.758;6.872;2022-08-19T02:31:25;18.00;99.90
37530;DHT22;23374;52.758;6.872;2022-08-19T02:33:48;18.00;99.90
37530;DHT22;23374;52.758;6.872;2022-08-19T02:36:09;18.00;99.90
37530;DHT22;23374;52.758;6.872;2022-08-19T02:38:30;18.00;99.90
37530;DHT22;23374;52.758;6.872;2022-08-19T02:40:59;17.90;99.90
37530;DHT22;23374;52.758;6.872;2022-08-19T02:43:27;17.90;99.90
37530;DHT22;23374;52.758;6.872;2022-08-19T02:45:49;18.00;99.90
37530;DHT22;23374;52.758;6.872;2022-08-19T02:48:09;17.90;99.90
37530;DHT22;23374;52.758;6.872;2022-08-19T02:51:29;17.90;99.90
37530;DHT22;23374;52.758;6.872;2022-08-19T02:53:49;17.90;99.90
37530;DHT22;23374;52.758;6.872;2022-08-19T02:56:10;17.80;99.90
37530;DHT22;23374;52.758;6.872;2022-08-19T02:58:30;17.80;99.90
37530;DHT22;23374;52.758;6.872;2022-08-19T03:00:55;17.80;99.90
37530;DHT22;23374;52.758;6.872;2022-08-19T03:03:17;17.70;99.90
37530;DHT22;23374;52.758;6.872;2022-08-19T03:05:39;17.70;99.90
37530;DHT22;23374;52.758;6.872;2022-08-19T03:07:59;17.70;99.90
37530;DHT22;23374;52.758;6.872;2022-08-19T03:10:19;17.70;99.90
37530;DHT22;23374;52.758;6.872;2022-08-19T03:12:40;17.60;99.90
37530;DHT22;23374;52.758;6.872;2022-08-19T03:15:00;17.60;99.90
37530;DHT22;23374;52.758;6.872;2022-08-19T03:17:20;17.50;99.90
37530;DHT22;23374;52.758;6.872;2022-08-19T03:19:41;17.50;99.90
37530;DHT22;23374;52.758;6.872;2022-08-19T03:22:01;17.50;99.90
37530;DHT22;23374;52.758;6.872;2022-08-19T03:24:23;17.40;99.90
37530;DHT22;23374;52.758;6.872;2022-08-19T03:26:47;17.40;99.90
37530;DHT22;23374;52.758;6.872;2022-08-19T03:29:09;17.30;90.80
37530;DHT22;23374;52.758;6.872;2022-08-19T03:31:31;17.30;94.90
37530;DHT22;23374;52.758;6.872;2022-08-19T03:33:52;17.20;75.00
37530;DHT22;23374;52.758;6.872;2022-08-19T03:36:17;17.10;83.70
37530;DHT22;23374;52.758;6.872;2022-08-19T03:38:45;17.10;90.40
37530;DHT22;23374;52.758;6.872;2022-08-19T03:41:10;17.00;99.90
37530;DHT22;23374;52.758;6.872;2022-08-19T03:43:31;17.10;99.90
37530;DHT22;23374;52.758;6.872;2022-08-19T03:46:05;17.10;99.90
37530;DHT22;23374;52.758;6.872;2022-08-19T03:48:26;17.10;99.90
37530;DHT22;23374;52.758;6.872;2022-08-19T03:50:46;17.00;99.90
37530;DHT22;23374;52.758;6.872;2022-08-19T03:53:06;17.00;99.90
37530;DHT22;23374;52.758;6.872;2022-08-19T03:55:28;17.00;99.90
37530;DHT22;23374;52.758;6.872;2022-08-19T03:58:02;17.00;99.90
37530;DHT22;23374;52.758;6.872;2022-08-19T04:00:22;17.00;99.90
37530;DHT22;23374;52.758;6.872;2022-08-19T04:02:43;17.00;99.90
37530;DHT22;23374;52.758;6.872;2022-08-19T04:05:04;17.00;99.90
37530;DHT22;23374;52.758;6.872;2022-08-19T04:07:25;17.00;99.90
37530;DHT22;23374;52.758;6.872;2022-08-19T04:09:46;17.00;99.90
37530;DHT22;23374;52.758;6.872;2022-08-19T04:12:06;17.00;99.90
37530;DHT22;23374;52.758;6.872;2022-08-19T04:14:29;17.00;99.90
37530;DHT22;23374;52.758;6.872;2022-08-19T04:16:53;17.00;99.90
37530;DHT22;23374;52.758;6.872;2022-08-19T04:19:15;17.10;99.90
37530;DHT22;23374;52.758;6.872;2022-08-19T04:21:36;17.10;99.90
37530;DHT22;23374;52.758;6.872;2022-08-19T04:23:57;17.10;99.90
37530;DHT22;23374;52.758;6.872;2022-08-19T04:26:21;17.10;99.90
37530;DHT22;23374;52.758;6.872;2022-08-19T04:28:43;17.10;99.90
37530;DHT22;23374;52.758;6.872;2022-08-19T04:31:03;17.00;99.90
37530;DHT22;23374;52.758;6.872;2022-08-19T04:33:26;17.10;99.90
37530;DHT22;23374;52.758;6.872;2022-08-19T04:35:51;17.00;99.90
37530;DHT22;23374;52.758;6.872;2022-08-19T04:38:11;17.10;99.90
37530;DHT22;23374;52.758;6.872;2022-08-19T04:40:32;17.00;99.90
37530;DHT22;23374;52.758;6.872;2022-08-19T04:43:11;17.10;99.90
37530;DHT22;23374;52.758;6.872;2022-08-19T04:45:36;17.00;99.90
37530;DHT22;23374;52.758;6.872;2022-08-19T04:47:56;17.00;99.90
37530;DHT22;23374;52.758;6.872;2022-08-19T04:50:17;17.10;99.90
37530;DHT22;23374;52.758;6.872;2022-08-19T04:52:39;17.10;99.90
37530;DHT22;23374;52.758;6.872;2022-08-19T04:55:03;17.10;99.90
37530;DHT22;23374;52.758;6.872;2022-08-19T04:57:25;17.10;99.90
37530;DHT22;23374;52.758;6.872;2022-08-19T04:59:46;17.10;99.90
37530;DHT22;23374;52.758;6.872;2022-08-19T05:02:08;17.10;99.90
37530;DHT22;23374;52.758;6.872;2022-08-19T05:04:28;17.00;99.90
37530;DHT22;23374;52.758;6.872;2022-08-19T05:06:51;17.10;99.90
37530;DHT22;23374;52.758;6.872;2022-08-19T05:09:14;17.10;99.90
37530;DHT22;23374;52.758;6.872;2022-08-19T05:11:36;17.10;99.90
37530;DHT22;23374;52.758;6.872;2022-08-19T05:14:00;17.10;99.90
37530;DHT22;23374;52.758;6.872;2022-08-19T05:16:22;17.20;99.90
37530;DHT22;23374;52.758;6.872;2022-08-19T05:18:43;17.20;99.90
37530;DHT22;23374;52.758;6.872;2022-08-19T05:21:23;17.30;99.90
37530;DHT22;23374;52.758;6.872;2022-08-19T05:24:05;17.30;99.90
37530;DHT22;23374;52.758;6.872;2022-08-19T05:26:29;17.30;99.90
37530;DHT22;23374;52.758;6.872;2022-08-19T05:28:49;17.30;99.90
37530;DHT22;23374;52.758;6.872;2022-08-19T05:31:09;17.30;99.90
37530;DHT22;23374;52.758;6.872;2022-08-19T05:33:30;17.40;99.90
37530;DHT22;23374;52.758;6.872;2022-08-19T05:35:50;17.40;99.90
37530;DHT22;23374;52.758;6.872;2022-08-19T05:38:11;17.50;99.90
37530;DHT22;23374;52.758;6.872;2022-08-19T05:40:31;17.60;99.90
37530;DHT22;23374;52.758;6.872;2022-08-19T05:42:53;17.60;99.90
37530;DHT22;23374;52.758;6.872;2022-08-19T05:45:13;17.60;99.90
37530;DHT22;23374;52.758;6.872;2022-08-19T05:47:34;17.60;99.90
37530;DHT22;23374;52.758;6.872;2022-08-19T05:49:55;17.80;99.90
37530;DHT22;23374;52.758;6.872;2022-08-19T05:52:15;18.00;99.90
37530;DHT22;23374;52.758;6.872;2022-08-19T05:54:39;18.10;99.90
37530;DHT22;23374;52.758;6.872;2022-08-19T05:57:03;18.20;99.90
37530;DHT22;23374;52.758;6.872;2022-08-19T05:59:23;18.40;99.90
37530;DHT22;23374;52.758;6.872;2022-08-19T06:01:45;18.40;99.90
37530;DHT22;23374;52.758;6.872;2022-08-19T06:04:06;18.40;99.90
37530;DHT22;23374;52.758;6.872;2022-08-19T06:06:27;18.30;99.90
37530;DHT22;23374;52.758;6.872;2022-08-19T06:08:47;18.20;99.90
37530;DHT22;23374;52.758;6.872;2022-08-19T06:11:46;18.20;99.90
37530;DHT22;23374;52.758;6.872;2022-08-19T06:14:14;18.20;99.90
37530;DHT22;23374;52.758;6.872;2022-08-19T06:16:37;18.20;99.90
37530;DHT22;23374;52.758;6.872;2022-08-19T06:19:02;18.20;99.90
37530;DHT22;23374;52.758;6.872;2022-08-19T06:21:26;18.20;99.90
37530;DHT22;23374;52.758;6.872;2022-08-19T06:23:48;18.20;99.90
37530;DHT22;23374;52.758;6.872;2022-08-19T06:26:15;18.30;99.90
37530;DHT22;23374;52.758;6.872;2022-08-19T06:28:36;18.30;99.90
37530;DHT22;23374;52.758;6.872;2022-08-19T06:30:56;18.30;99.90
37530;DHT22;23374;52.758;6.872;2022-08-19T06:33:17;18.40;99.90
37530;DHT22;23374;52.758;6.872;2022-08-19T06:35:41;18.40;99.90
37530;DHT22;23374;52.758;6.872;2022-08-19T06:38:02;18.50;99.90
37530;DHT22;23374;52.758;6.872;2022-08-19T06:40:24;18.50;99.90
37530;DHT22;23374;52.758;6.872;2022-08-19T06:42:47;18.60;99.90
37530;DHT22;23374;52.758;6.872;2022-08-19T06:45:08;18.60;99.90
37530;DHT22;23374;52.758;6.872;2022-08-19T06:47:29;18.70;99.90
37530;DHT22;23374;52.758;6.872;2022-08-19T06:49:57;18.80;99.90
37530;DHT22;23374;52.758;6.872;2022-08-19T06:52:22;18.90;99.90
37530;DHT22;23374;52.758;6.872;2022-08-19T06:54:43;19.00;99.90
37530;DHT22;23374;52.758;6.872;2022-08-19T06:57:05;19.10;99.90
37530;DHT22;23374;52.758;6.872;2022-08-19T06:59:26;19.20;99.90
37530;DHT22;23374;52.758;6.872;2022-08-19T07:01:51;19.20;99.90
37530;DHT22;23374;52.758;6.872;2022-08-19T07:04:14;19.30;99.90
37530;DHT22;23374;52.758;6.872;2022-08-19T07:06:36;19.40;99.90
37530;DHT22;23374;52.758;6.872;2022-08-19T07:08:57;19.50;99.90
37530;DHT22;23374;52.758;6.872;2022-08-19T07:11:18;19.60;99.90
37530;DHT22;23374;52.758;6.872;2022-08-19T07:13:40;19.60;99.90
37530;DHT22;23374;52.758;6.872;2022-08-19T07:16:06;19.70;99.90
37530;DHT22;23374;52.758;6.872;2022-08-19T07:18:27;19.70;99.90
37530;DHT22;23374;52.758;6.872;2022-08-19T07:20:48;19.80;99.90
37530;DHT22;23374;52.758;6.872;2022-08-19T07:23:09;19.80;99.90
37530;DHT22;23374;52.758;6.872;2022-08-19T07:25:29;19.90;99.90
37530;DHT22;23374;52.758;6.872;2022-08-19T07:27:50;19.90;99.90
37530;DHT22;23374;52.758;6.872;2022-08-19T07:30:11;20.10;99.90
37530;DHT22;23374;52.758;6.872;2022-08-19T07:32:32;20.10;99.90
37530;DHT22;23374;52.758;6.872;2022-08-19T07:34:52;20.10;99.90
37530;DHT22;23374;52.758;6.872;2022-08-19T07:37:13;20.20;99.90
37530;DHT22;23374;52.758;6.872;2022-08-19T07:39:35;20.20;99.90
37530;DHT22;23374;52.758;6.872;2022-08-19T07:41:59;20.20;99.90
37530;DHT22;23374;52.758;6.872;2022-08-19T07:44:20;20.20;99.90
37530;DHT22;23374;52.758;6.872;2022-08-19T07:46:45;20.20;99.90
37530;DHT22;23374;52.758;6.872;2022-08-19T07:49:07;20.30;99.90
37530;DHT22;23374;52.758;6.872;2022-08-19T07:51:28;20.30;99.90
37530;DHT22;23374;52.758;6.872;2022-08-19T07:53:49;20.40;99.90
37530;DHT22;23374;52.758;6.872;2022-08-19T07:56:12;20.50;99.90
37530;DHT22;23374;52.758;6.872;2022-08-19T07:58:38;20.50;99.90
37530;DHT22;23374;52.758;6.872;2022-08-19T08:01:00;20.60;99.90
37530;DHT22;23374;52.758;6.872;2022-08-19T08:03:21;20.60;99.90
37530;DHT22;23374;52.758;6.872;2022-08-19T08:11:30;20.80;99.90
37530;DHT22;23374;52.758;6.872;2022-08-19T08:13:50;21.00;99.90
37530;DHT22;23374;52.758;6.872;2022-08-19T08:16:11;21.10;99.90
37530;DHT22;23374;52.758;6.872;2022-08-19T08:18:31;21.20;99.90
37530;DHT22;23374;52.758;6.872;2022-08-19T08:20:53;21.30;99.90
37530;DHT22;23374;52.758;6.872;2022-08-19T08:23:13;21.40;99.90
37530;DHT22;23374;52.758;6.872;2022-08-19T08:25:42;21.50;99.90
37530;DHT22;23374;52.758;6.872;2022-08-19T08:28:03;21.60;99.90
37530;DHT22;23374;52.758;6.872;2022-08-19T08:30:25;21.70;99.90
37530;DHT22;23374;52.758;6.872;2022-08-19T08:32:47;21.80;99.90
37530;DHT22;23374;52.758;6.872;2022-08-19T08:35:12;21.90;99.90
37530;DHT22;23374;52.758;6.872;2022-08-19T08:37:33;22.00;99.90
37530;DHT22;23374;52.758;6.872;2022-08-19T08:39:53;22.10;99.90
37530;DHT22;23374;52.758;6.872;2022-08-19T08:42:37;22.20;99.90
37530;DHT22;23374;52.758;6.872;2022-08-19T08:45:12;22.40;99.90
37530;DHT22;23374;52.758;6.872;2022-08-19T08:47:37;22.50;99.90
37530;DHT22;23374;52.758;6.872;2022-08-19T08:50:06;22.60;99.90
37530;DHT22;23374;52.758;6.872;2022-08-19T08:52:31;22.70;99.90
37530;DHT22;23374;52.758;6.872;2022-08-19T08:54:58;22.70;99.90
37530;DHT22;23374;52.758;6.872;2022-08-19T08:59:21;22.80;99.90
37530;DHT22;23374;52.758;6.872;2022-08-19T09:01:43;22.90;61.70
37530;DHT22;23374;52.758;6.872;2022-08-19T09:04:05;23.10;99.90
37530;DHT22;23374;52.758;6.872;2022-08-19T09:07:12;23.10;88.10
37530;DHT22;23374;52.758;6.872;2022-08-19T09:09:42;23.30;30.40
37530;DHT22;23374;52.758;6.872;2022-08-19T09:25:37;23.30;45.60
37530;DHT22;23374;52.758;6.872;2022-08-19T09:28:00;23.60;1.00
37530;DHT22;23374;52.758;6.872;2022-08-19T09:30:26;23.70;1.00
37530;DHT22;23374;52.758;6.872;2022-08-19T09:32:47;23.80;1.00
37530;DHT22;23374;52.758;6.872;2022-08-19T09:35:08;23.90;1.00
37530;DHT22;23374;52.758;6.872;2022-08-19T09:37:29;24.00;1.00
37530;DHT22;23374;52.758;6.872;2022-08-19T09:39:49;24.00;1.00
37530;DHT22;23374;52.758;6.872;2022-08-19T09:42:10;24.10;1.00
37530;DHT22;23374;52.758;6.872;2022-08-19T09:44:32;24.20;1.00
37530;DHT22;23374;52.758;6.872;2022-08-19T09:46:53;24.20;1.00
37530;DHT22;23374;52.758;6.872;2022-08-19T09:49:16;24.30;1.00
37530;DHT22;23374;52.758;6.872;2022-08-19T09:51:37;24.40;1.00
37530;DHT22;23374;52.758;6.872;2022-08-19T09:54:03;24.40;1.00
37530;DHT22;23374;52.758;6.872;2022-08-19T09:56:24;24.50;1.00
37530;DHT22;23374;52.758;6.872;2022-08-19T09:58:50;24.60;1.00
37530;DHT22;23374;52.758;6.872;2022-08-19T10:01:24;24.60;1.00
37530;DHT22;23374;52.758;6.872;2022-08-19T10:03:49;24.70;1.00
37530;DHT22;23374;52.758;6.872;2022-08-19T10:06:10;24.70;1.00
37530;DHT22;23374;52.758;6.872;2022-08-19T10:08:36;24.80;1.00
37530;DHT22;23374;52.758;6.872;2022-08-19T10:10:57;24.80;1.00
37530;DHT22;23374;52.758;6.872;2022-08-19T10:13:20;24.90;1.00
37530;DHT22;23374;52.758;6.872;2022-08-19T10:15:45;24.90;1.00
37530;DHT22;23374;52.758;6.872;2022-08-19T10:18:11;25.10;1.00
37530;DHT22;23374;52.758;6.872;2022-08-19T10:20:32;25.10;1.00
37530;DHT22;23374;52.758;6.872;2022-08-19T10:22:52;25.10;1.00
37530;DHT22;23374;52.758;6.872;2022-08-19T10:25:13;25.10;1.00
37530;DHT22;23374;52.758;6.872;2022-08-19T10:27:35;25.10;1.00
37530;DHT22;23374;52.758;6.872;2022-08-19T10:29:55;25.20;1.00
37530;DHT22;23374;52.758;6.872;2022-08-19T10:32:16;25.30;1.00
37530;DHT22;23374;52.758;6.872;2022-08-19T10:34:37;25.40;1.00
37530;DHT22;23374;52.758;6.872;2022-08-19T10:36:59;25.40;1.00
37530;DHT22;23374;52.758;6.872;2022-08-19T10:39:20;25.50;1.00
37530;DHT22;23374;52.758;6.872;2022-08-19T10:41:40;25.60;1.00
37530;DHT22;23374;52.758;6.872;2022-08-19T10:44:09;25.70;1.00
37530;DHT22;23374;52.758;6.872;2022-08-19T10:46:30;25.80;1.00
37530;DHT22;23374;52.758;6.872;2022-08-19T10:48:54;25.80;1.00
37530;DHT22;23374;52.758;6.872;2022-08-19T10:51:14;25.70;1.00
37530;DHT22;23374;52.758;6.872;2022-08-19T10:53:54;25.70;1.00
37530;DHT22;23374;52.758;6.872;2022-08-19T10:56:15;25.60;1.00
37530;DHT22;23374;52.758;6.872;2022-08-19T10:58:55;25.70;1.00
37530;DHT22;23374;52.758;6.872;2022-08-19T11:01:17;25.80;1.00
37530;DHT22;23374;52.758;6.872;2022-08-19T11:03:38;25.80;1.00
37530;DHT22;23374;52.758;6.872;2022-08-19T11:06:08;25.90;1.00
37530;DHT22;23374;52.758;6.872;2022-08-19T11:08:28;26.00;1.00
37530;DHT22;23374;52.758;6.872;2022-08-19T11:10:53;25.90;1.00
37530;DHT22;23374;52.758;6.872;2022-08-19T11:13:20;25.90;1.00
37530;DHT22;23374;52.758;6.872;2022-08-19T11:15:41;25.90;1.00
37530;DHT22;23374;52.758;6.872;2022-08-19T11:18:02;25.90;1.00
37530;DHT22;23374;52.758;6.872;2022-08-19T11:20:23;25.90;1.00
37530;DHT22;23374;52.758;6.872;2022-08-19T11:22:43;25.80;1.00
37530;DHT22;23374;52.758;6.872;2022-08-19T11:25:04;25.80;1.00
37530;DHT22;23374;52.758;6.872;2022-08-19T11:27:25;25.80;1.00
37530;DHT22;23374;52.758;6.872;2022-08-19T11:29:45;25.80;1.00
37530;DHT22;23374;52.758;6.872;2022-08-19T11:32:08;25.80;1.00
37530;DHT22;23374;52.758;6.872;2022-08-19T11:34:29;25.80;1.00
37530;DHT22;23374;52.758;6.872;2022-08-19T11:36:51;25.90;1.00
37530;DHT22;23374;52.758;6.872;2022-08-19T11:39:15;26.00;1.00
37530;DHT22;23374;52.758;6.872;2022-08-19T11:41:36;26.00;1.00
37530;DHT22;23374;52.758;6.872;2022-08-19T11:43:57;25.90;1.00
37530;DHT22;23374;52.758;6.872;2022-08-19T11:46:17;25.90;1.00
37530;DHT22;23374;52.758;6.872;2022-08-19T11:48:38;25.90;1.00
37530;DHT22;23374;52.758;6.872;2022-08-19T11:50:59;26.00;1.00
37530;DHT22;23374;52.758;6.872;2022-08-19T11:53:20;26.00;1.00
37530;DHT22;23374;52.758;6.872;2022-08-19T11:55:40;26.00;1.00
37530;DHT22;23374;52.758;6.872;2022-08-19T11:58:02;26.00;1.00
37530;DHT22;23374;52.758;6.872;2022-08-19T12:00:22;26.00;1.00
37530;DHT22;23374;52.758;6.872;2022-08-19T12:02:43;26.20;1.00
37530;DHT22;23374;52.758;6.872;2022-08-19T12:05:04;26.40;1.00
37530;DHT22;23374;52.758;6.872;2022-08-19T12:07:26;26.50;1.00
37530;DHT22;23374;52.758;6.872;2022-08-19T12:09:46;26.50;1.00
37530;DHT22;23374;52.758;6.872;2022-08-19T12:12:08;26.50;1.00
37530;DHT22;23374;52.758;6.872;2022-08-19T12:14:29;26.50;1.00
37530;DHT22;23374;52.758;6.872;2022-08-19T12:16:52;26.60;1.00
37530;DHT22;23374;52.758;6.872;2022-08-19T12:19:12;26.60;1.00
37530;DHT22;23374;52.758;6.872;2022-08-19T12:21:34;26.50;1.00
37530;DHT22;23374;52.758;6.872;2022-08-19T12:23:57;26.40;1.00
37530;DHT22;23374;52.758;6.872;2022-08-19T12:26:18;26.30;1.00
37530;DHT22;23374;52.758;6.872;2022-08-19T12:28:38;26.40;1.00
37530;DHT22;23374;52.758;6.872;2022-08-19T12:30:58;26.40;1.00
37530;DHT22;23374;52.758;6.872;2022-08-19T12:33:20;26.40;1.00
37530;DHT22;23374;52.758;6.872;2022-08-19T12:35:45;26.50;1.00
37530;DHT22;23374;52.758;6.872;2022-08-19T12:38:06;26.60;1.00
37530;DHT22;23374;52.758;6.872;2022-08-19T12:40:27;26.70;1.00
37530;DHT22;23374;52.758;6.872;2022-08-19T12:42:47;26.90;1.00
37530;DHT22;23374;52.758;6.872;2022-08-19T12:45:11;27.00;1.00
37530;DHT22;23374;52.758;6.872;2022-08-19T12:47:32;27.00;1.00
37530;DHT22;23374;52.758;6.872;2022-08-19T12:49:52;27.20;1.00
37530;DHT22;23374;52.758;6.872;2022-08-19T12:52:14;27.30;1.00
37530;DHT22;23374;52.758;6.872;2022-08-19T12:54:37;27.40;1.00
37530;DHT22;23374;52.758;6.872;2022-08-19T12:56:59;27.50;1.00
37530;DHT22;23374;52.758;6.872;2022-08-19T12:59:19;27.60;1.00
37530;DHT22;23374;52.758;6.872;2022-08-19T13:01:39;27.60;1.00
37530;DHT22;23374;52.758;6.872;2022-08-19T13:04:01;27.70;1.00
37530;DHT22;23374;52.758;6.872;2022-08-19T13:06:21;27.70;1.00
37530;DHT22;23374;52.758;6.872;2022-08-19T13:08:42;27.60;1.00
37530;DHT22;23374;52.758;6.872;2022-08-19T13:11:15;27.50;1.00
37530;DHT22;23374;52.758;6.872;2022-08-19T13:13:40;27.40;1.00
37530;DHT22;23374;52.758;6.872;2022-08-19T13:16:01;27.30;1.00
37530;DHT22;23374;52.758;6.872;2022-08-19T13:18:23;27.30;1.00
37530;DHT22;23374;52.758;6.872;2022-08-19T13:20:45;27.30;1.00
37530;DHT22;23374;52.758;6.872;2022-08-19T13:23:07;27.40;1.00
37530;DHT22;23374;52.758;6.872;2022-08-19T13:25:28;27.60;1.00
37530;DHT22;23374;52.758;6.872;2022-08-19T13:27:49;27.70;99.90
37530;DHT22;23374;52.758;6.872;2022-08-19T13:30:13;27.80;99.90
37530;DHT22;23374;52.758;6.872;2022-08-19T13:32:53;27.80;99.90
37530;DHT22;23374;52.758;6.872;2022-08-19T13:35:32;27.70;99.90
37530;DHT22;23374;52.758;6.872;2022-08-19T13:37:52;27.70;99.90
37530;DHT22;23374;52.758;6.872;2022-08-19T13:40:20;27.70;99.90
37530;DHT22;23374;52.758;6.872;2022-08-19T13:42:44;27.60;99.90
37530;DHT22;23374;52.758;6.872;2022-08-19T13:45:07;27.60;99.90
37530;DHT22;23374;52.758;6.872;2022-08-19T13:47:27;27.60;99.90
37530;DHT22;23374;52.758;6.872;2022-08-19T13:49:47;27.60;99.90
37530;DHT22;23374;52.758;6.872;2022-08-19T13:52:09;27.60;99.90
37530;DHT22;23374;52.758;6.872;2022-08-19T13:54:30;27.50;99.90
37530;DHT22;23374;52.758;6.872;2022-08-19T13:56:50;27.40;99.90
37530;DHT22;23374;52.758;6.872;2022-08-19T13:59:11;27.50;99.90
37530;DHT22;23374;52.758;6.872;2022-08-19T14:01:32;27.50;99.90
37530;DHT22;23374;52.758;6.872;2022-08-19T14:03:52;27.60;99.90
37530;DHT22;23374;52.758;6.872;2022-08-19T14:06:12;27.60;99.90
37530;DHT22;23374;52.758;6.872;2022-08-19T14:08:33;27.60;99.90
37530;DHT22;23374;52.758;6.872;2022-08-19T14:10:54;27.60;99.90
37530;DHT22;23374;52.758;6.872;2022-08-19T14:13:19;27.60;99.90
37530;DHT22;23374;52.758;6.872;2022-08-19T14:15:41;27.50;99.90
37530;DHT22;23374;52.758;6.872;2022-08-19T14:18:01;27.50;99.90
37530;DHT22;23374;52.758;6.872;2022-08-19T14:20:22;27.60;99.90
37530;DHT22;23374;52.758;6.872;2022-08-19T14:22:44;27.60;99.90
37530;DHT22;23374;52.758;6.872;2022-08-19T14:25:12;27.70;99.90
37530;DHT22;23374;52.758;6.872;2022-08-19T14:27:36;27.80;99.90
37530;DHT22;23374;52.758;6.872;2022-08-19T14:29:56;27.80;99.90
37530;DHT22;23374;52.758;6.872;2022-08-19T14:32:17;27.80;99.90
37530;DHT22;23374;52.758;6.872;2022-08-19T14:34:37;27.80;99.90
37530;DHT22;23374;52.758;6.872;2022-08-19T14:36:58;27.90;99.90
37530;DHT22;23374;52.758;6.872;2022-08-19T14:39:18;27.90;91.30
37530;DHT22;23374;52.758;6.872;2022-08-19T14:41:41;27.90;60.40
37530;DHT22;23374;52.758;6.872;2022-08-19T14:44:02;28.00;98.40
37530;DHT22;23374;52.758;6.872;2022-08-19T14:46:27;28.10;99.90
37530;DHT22;23374;52.758;6.872;2022-08-19T14:48:49;28.10;97.90
37530;DHT22;23374;52.758;6.872;2022-08-19T14:51:09;28.10;88.60
37530;DHT22;23374;52.758;6.872;2022-08-19T14:53:30;28.10;99.90
37530;DHT22;23374;52.758;6.872;2022-08-19T14:55:50;28.10;99.90
37530;DHT22;23374;52.758;6.872;2022-08-19T14:58:11;27.90;99.90
37530;DHT22;23374;52.758;6.872;2022-08-19T15:00:31;27.90;99.90
37530;DHT22;23374;52.758;6.872;2022-08-19T15:02:52;27.90;99.90
37530;DHT22;23374;52.758;6.872;2022-08-19T15:05:13;27.90;99.90
37530;DHT22;23374;52.758;6.872;2022-08-19T15:07:33;27.90;99.90
37530;DHT22;23374;52.758;6.872;2022-08-19T15:09:53;27.90;99.90
37530;DHT22;23374;52.758;6.872;2022-08-19T15:12:13;28.00;99.90
37530;DHT22;23374;52.758;6.872;2022-08-19T15:14:36;27.90;28.60
37530;DHT22;23374;52.758;6.872;2022-08-19T15:16:57;27.80;46.40
37530;DHT22;23374;52.758;6.872;2022-08-19T15:19:17;27.80;99.90
37530;DHT22;23374;52.758;6.872;2022-08-19T15:21:38;27.70;99.90
37530;DHT22;23374;52.758;6.872;2022-08-19T15:23:59;27.70;99.90
37530;DHT22;23374;52.758;6.872;2022-08-19T15:26:21;27.50;99.90
37530;DHT22;23374;52.758;6.872;2022-08-19T15:28:41;27.50;99.90
37530;DHT22;23374;52.758;6.872;2022-08-19T15:31:03;27.40;99.90